Time,TemperatureF,DewpointF,PressureIn,WindDirection,WindDirectionDegrees,WindSpeedMPH,WindSpeedGustMPH,Humidity,HourlyPrecipIn,Conditions,Clouds,dailyrainin,SoftwareType,DateUTC
2013-12-17 00:04:00,0.7,-1.8,30.03,West,270,0.0,-999.0,89,-99.99,,,0.00,Acu-Link.com,2013-12-17 05:04:00,
2013-12-17 00:19:00,0.1,-2.6,30.03,West,270,0.0,-999.0,88,-99.99,,,0.00,Acu-Link.com,2013-12-17 05:19:00,
2013-12-17 00:35:00,0.3,-2.4,30.01,NNW,337,0.0,-999.0,88,-99.99,,,0.00,Acu-Link.com,2013-12-17 05:35:00,
2013-12-17 00:50:00,0.9,-1.8,30.00,North,0,0.0,-999.0,88,-99.99,,,0.00,Acu-Link.com,2013-12-17 05:50:00,
2013-12-17 01:06:00,1.0,-1.7,29.99,NNE,22,0.0,-999.0,88,-99.99,,,0.00,Acu-Link.com,2013-12-17 06:06:00,
2013-12-17 01:21:00,0.5,-2.2,29.98,NW,315,0.0,-999.0,88,-99.99,,,0.00,Acu-Link.com,2013-12-17 06:21:00,
2013-12-17 01:36:00,0.5,-2.2,29.98,ESE,112,0.0,-999.0,88,-99.99,,,0.00,Acu-Link.com,2013-12-17 06:36:00,
2013-12-17 01:51:00,0.3,-2.4,29.97,ENE,67,0.0,-999.0,88,-99.99,,,0.00,Acu-Link.com,2013-12-17 06:51:00,
2013-12-17 02:07:00,0.0,-2.7,29.97,WNW,292,0.0,-999.0,88,-99.99,,,0.00,Acu-Link.com,2013-12-17 07:07:00,
2013-12-17 02:22:00,1.2,-1.3,29.96,WSW,247,0.0,-999.0,89,-99.99,,,0.00,Acu-Link.com,2013-12-17 07:22:00,
2013-12-17 02:37:00,2.1,-0.1,29.96,East,90,0.0,-999.0,90,-99.99,,,0.00,Acu-Link.com,2013-12-17 07:37:00,
2013-12-17 02:52:00,3.2,0.9,29.94,ENE,67,0.0,-999.0,90,-99.99,,,0.00,Acu-Link.com,2013-12-17 07:52:00,
2013-12-17 03:08:00,3.6,1.3,29.94,South,180,0.0,-999.0,90,-99.99,,,0.00,Acu-Link.com,2013-12-17 08:08:00,
2013-12-17 03:23:00,4.5,2.2,29.93,ESE,112,0.0,-999.0,90,-99.99,,,0.00,Acu-Link.com,2013-12-17 08:23:00,
2013-12-17 03:38:00,5.5,3.2,29.92,WNW,292,0.0,-999.0,90,-99.99,,,0.00,Acu-Link.com,2013-12-17 08:38:00,
2013-12-17 03:54:00,6.3,4.2,29.92,ESE,112,2.7,-999.0,91,-99.99,,,0.00,Acu-Link.com,2013-12-17 08:54:00,
2013-12-17 04:09:00,7.2,5.1,29.90,East,90,0.0,-999.0,91,-99.99,,,0.00,Acu-Link.com,2013-12-17 09:09:00,
2013-12-17 04:24:00,7.9,5.8,29.89,East,90,2.2,-999.0,91,-99.99,,,0.00,Acu-Link.com,2013-12-17 09:24:00,
2013-12-17 04:39:00,8.8,7.0,29.89,NE,45,0.0,-999.0,92,-99.99,,,0.00,Acu-Link.com,2013-12-17 09:39:00,
2013-12-17 04:55:00,9.1,7.3,29.87,WNW,292,0.0,-999.0,92,-99.99,,,0.00,Acu-Link.com,2013-12-17 09:55:00,
2013-12-17 05:10:00,9.5,7.7,29.87,NNE,22,0.0,-999.0,92,-99.99,,,0.00,Acu-Link.com,2013-12-17 10:10:00,
2013-12-17 05:25:00,9.7,7.9,29.85,East,90,0.0,-999.0,92,-99.99,,,0.00,Acu-Link.com,2013-12-17 10:25:00,
2013-12-17 05:41:00,10.2,8.3,29.84,North,0,0.0,-999.0,92,-99.99,,,0.00,Acu-Link.com,2013-12-17 10:41:00,
2013-12-17 05:56:00,10.4,8.5,29.83,WNW,292,0.0,-999.0,92,-99.99,,,0.00,Acu-Link.com,2013-12-17 10:56:00,
2013-12-17 06:11:00,10.9,9.3,29.83,WSW,247,0.0,-999.0,93,-99.99,,,0.00,Acu-Link.com,2013-12-17 11:11:00,
2013-12-17 06:27:00,11.3,9.7,29.82,WNW,292,0.0,-999.0,93,-99.99,,,0.00,Acu-Link.com,2013-12-17 11:27:00,
2013-12-17 06:42:00,11.5,9.9,29.82,East,90,0.0,-999.0,93,-99.99,,,0.00,Acu-Link.com,2013-12-17 11:42:00,
2013-12-17 06:57:00,12.0,10.4,29.83,NE,45,0.0,-999.0,93,-99.99,,,0.00,Acu-Link.com,2013-12-17 11:57:00,
2013-12-17 07:13:00,12.2,10.6,29.82,NNW,337,0.0,-999.0,93,-99.99,,,0.00,Acu-Link.com,2013-12-17 12:13:00,
2013-12-17 07:28:00,12.7,11.1,29.81,East,90,0.0,-999.0,93,-99.99,,,0.00,Acu-Link.com,2013-12-17 12:28:00,
2013-12-17 07:43:00,13.1,11.5,29.80,NE,45,0.0,-999.0,93,-99.99,,,0.00,Acu-Link.com,2013-12-17 12:43:00,
2013-12-17 07:58:00,13.5,12.1,29.80,ENE,67,0.0,-999.0,94,-99.99,,,0.00,Acu-Link.com,2013-12-17 12:58:00,
2013-12-17 08:14:00,14.0,12.6,29.80,ESE,112,0.0,-999.0,94,-99.99,,,0.00,Acu-Link.com,2013-12-17 13:14:00,
2013-12-17 08:29:00,14.4,13.0,29.81,WNW,292,0.0,-999.0,94,-99.99,,,0.00,Acu-Link.com,2013-12-17 13:29:00,
2013-12-17 08:44:00,15.1,13.7,29.80,WNW,292,0.0,-999.0,94,-99.99,,,0.00,Acu-Link.com,2013-12-17 13:44:00,
2013-12-17 08:59:00,15.6,14.2,29.82,WNW,292,0.0,-999.0,94,-99.99,,,0.00,Acu-Link.com,2013-12-17 13:59:00,
2013-12-17 09:14:00,16.0,14.6,29.81,WNW,292,0.0,-999.0,94,-99.99,,,0.00,Acu-Link.com,2013-12-17 14:14:00,
2013-12-17 09:29:00,16.9,15.5,29.81,SW,225,0.0,-999.0,94,-99.99,,,0.00,Acu-Link.com,2013-12-17 14:29:00,
2013-12-17 09:44:00,17.8,16.4,29.81,SSE,157,0.0,-999.0,94,-99.99,,,0.00,Acu-Link.com,2013-12-17 14:44:00,
2013-12-17 10:00:00,18.3,16.9,29.81,NNW,337,0.0,-999.0,94,-99.99,,,0.00,Acu-Link.com,2013-12-17 15:00:00,
2013-12-17 10:15:00,19.4,18.2,29.81,West,270,0.0,-999.0,95,-99.99,,,0.00,Acu-Link.com,2013-12-17 15:15:00,
2013-12-17 10:30:00,20.8,20.1,29.82,SSE,157,0.0,-999.0,97,-99.99,,,0.00,Acu-Link.com,2013-12-17 15:30:00,
2013-12-17 10:46:00,23.5,23.0,29.81,SSE,157,0.0,-999.0,98,-99.99,,,0.00,Acu-Link.com,2013-12-17 15:46:00,
2013-12-17 11:01:00,25.5,25.0,29.81,WNW,292,0.0,-999.0,98,-99.99,,,0.00,Acu-Link.com,2013-12-17 16:01:00,
2013-12-17 11:16:00,25.9,25.4,29.80,WNW,292,0.0,-999.0,98,-99.99,,,0.00,Acu-Link.com,2013-12-17 16:16:00,
2013-12-17 11:32:00,26.6,26.1,29.80,WNW,292,0.0,-999.0,98,-99.99,,,0.00,Acu-Link.com,2013-12-17 16:32:00,
2013-12-17 11:47:00,27.0,26.5,29.80,WSW,247,0.0,-999.0,98,-99.99,,,0.00,Acu-Link.com,2013-12-17 16:47:00,
2013-12-17 12:02:00,26.8,26.3,29.82,West,270,0.0,-999.0,98,-99.99,,,0.00,Acu-Link.com,2013-12-17 17:02:00,
2013-12-17 12:17:00,27.1,26.6,29.81,SSW,202,0.0,-999.0,98,-99.99,,,0.00,Acu-Link.com,2013-12-17 17:17:00,
2013-12-17 12:33:00,27.5,27.0,29.81,West,270,0.0,-999.0,98,-99.99,,,0.00,Acu-Link.com,2013-12-17 17:33:00,
2013-12-17 12:48:00,27.1,25.9,29.80,West,270,0.0,-999.0,95,-99.99,,,0.00,Acu-Link.com,2013-12-17 17:48:00,
2013-12-17 13:03:00,29.8,27.5,29.81,West,270,0.0,-999.0,91,-99.99,,,0.00,Acu-Link.com,2013-12-17 18:03:00,
2013-12-17 13:18:00,27.1,24.0,29.79,SW,225,0.0,-999.0,88,-99.99,,,0.00,Acu-Link.com,2013-12-17 18:18:00,
2013-12-17 13:34:00,27.7,24.1,29.79,West,270,0.0,-999.0,86,-99.99,,,0.00,Acu-Link.com,2013-12-17 18:34:00,
2013-12-17 13:49:00,26.4,22.5,29.80,WSW,247,0.0,-999.0,85,-99.99,,,0.00,Acu-Link.com,2013-12-17 18:49:00,
2013-12-17 14:04:00,26.6,22.7,29.79,West,270,0.0,-999.0,85,-99.99,,,0.00,Acu-Link.com,2013-12-17 19:04:00,
2013-12-17 14:19:00,27.1,22.6,29.80,WSW,247,0.0,-999.0,83,-99.99,,,0.00,Acu-Link.com,2013-12-17 19:19:00,
2013-12-17 14:35:00,27.3,22.5,29.80,West,270,0.0,-999.0,82,-99.99,,,0.00,Acu-Link.com,2013-12-17 19:35:00,
2013-12-17 14:50:00,27.5,22.4,29.79,WNW,292,0.0,-999.0,81,-99.99,,,0.00,Acu-Link.com,2013-12-17 19:50:00,
2013-12-17 15:05:00,27.3,22.3,29.79,West,270,0.0,-999.0,81,-99.99,,,0.00,Acu-Link.com,2013-12-17 20:05:00,
2013-12-17 15:20:00,27.3,22.3,29.80,West,270,0.0,-999.0,81,-99.99,,,0.00,Acu-Link.com,2013-12-17 20:20:00,
2013-12-17 15:35:00,27.1,22.3,29.79,WNW,292,0.0,-999.0,82,-99.99,,,0.00,Acu-Link.com,2013-12-17 20:35:00,
2013-12-17 15:51:00,26.6,22.1,29.79,SSW,202,0.0,-999.0,83,-99.99,,,0.00,Acu-Link.com,2013-12-17 20:51:00,
2013-12-17 16:06:00,26.4,22.2,29.79,WSW,247,0.0,-999.0,84,-99.99,,,0.00,Acu-Link.com,2013-12-17 21:06:00,
2013-12-17 16:21:00,26.1,22.2,29.79,WNW,292,0.0,-999.0,85,-99.99,,,0.00,Acu-Link.com,2013-12-17 21:21:00,
2013-12-17 16:37:00,25.3,21.7,29.79,NW,315,0.0,-999.0,86,-99.99,,,0.00,Acu-Link.com,2013-12-17 21:37:00,
2013-12-17 16:52:00,24.3,21.0,29.78,ENE,67,0.0,-999.0,87,-99.99,,,0.00,Acu-Link.com,2013-12-17 21:52:00,
2013-12-17 17:07:00,23.9,21.1,29.79,ESE,112,0.0,-999.0,89,-99.99,,,0.00,Acu-Link.com,2013-12-17 22:07:00,
2013-12-17 17:22:00,23.9,21.7,29.78,North,0,0.0,-999.0,91,-99.99,,,0.00,Acu-Link.com,2013-12-17 22:22:00,
2013-12-17 17:38:00,25.2,23.5,29.79,SSW,202,0.0,-999.0,93,-99.99,,,0.00,Acu-Link.com,2013-12-17 22:38:00,
2013-12-17 17:53:00,26.1,25.6,29.79,South,180,0.0,-999.0,98,-99.99,,,0.00,Acu-Link.com,2013-12-17 22:53:00,
2013-12-17 18:08:00,26.6,26.1,29.79,West,270,0.0,-999.0,98,-99.99,,,0.00,Acu-Link.com,2013-12-17 23:08:00,
2013-12-17 18:23:00,27.1,25.6,29.79,South,180,0.0,-999.0,94,-99.99,,,0.00,Acu-Link.com,2013-12-17 23:23:00,
2013-12-17 18:39:00,27.1,25.1,29.79,South,180,0.0,-999.0,92,-99.99,,,0.00,Acu-Link.com,2013-12-17 23:39:00,
2013-12-17 18:54:00,27.3,24.8,29.79,WSW,247,0.0,-999.0,90,-99.99,,,0.00,Acu-Link.com,2013-12-17 23:54:00,
2013-12-17 19:09:00,27.1,24.3,29.80,SW,225,0.0,-999.0,89,-99.99,,,0.00,Acu-Link.com,2013-12-18 00:09:00,
2013-12-17 19:25:00,27.1,24.0,29.80,SSE,157,0.0,-999.0,88,-99.99,,,0.00,Acu-Link.com,2013-12-18 00:25:00,
2013-12-17 19:40:00,27.0,23.9,29.81,South,180,0.0,-999.0,88,-99.99,,,0.00,Acu-Link.com,2013-12-18 00:40:00,
2013-12-17 19:55:00,27.0,24.5,29.81,SW,225,0.0,-999.0,90,-99.99,,,0.00,Acu-Link.com,2013-12-18 00:55:00,
2013-12-17 20:10:00,26.8,24.3,29.82,West,270,0.0,-999.0,90,-99.99,,,0.00,Acu-Link.com,2013-12-18 01:10:00,
2013-12-17 20:26:00,26.6,24.3,29.82,South,180,0.0,-999.0,91,-99.99,,,0.00,Acu-Link.com,2013-12-18 01:26:00,
2013-12-17 20:41:00,26.2,23.9,29.83,SE,135,0.0,-999.0,91,-99.99,,,0.00,Acu-Link.com,2013-12-18 01:41:00,
2013-12-17 20:56:00,26.2,24.2,29.82,South,180,0.0,-999.0,92,-99.99,,,0.00,Acu-Link.com,2013-12-18 01:56:00,
2013-12-17 21:12:00,26.4,24.4,29.81,ESE,112,0.0,-999.0,92,-99.99,,,0.00,Acu-Link.com,2013-12-18 02:12:00,
2013-12-17 21:27:00,26.6,25.1,29.82,SSW,202,0.0,-999.0,94,-99.99,,,0.00,Acu-Link.com,2013-12-18 02:27:00,
2013-12-17 21:42:00,26.4,25.9,29.81,ESE,112,0.0,-999.0,98,-99.99,,,0.00,Acu-Link.com,2013-12-18 02:42:00,
2013-12-17 21:58:00,26.4,25.9,29.81,WNW,292,0.0,-999.0,98,-99.99,,,0.00,Acu-Link.com,2013-12-18 02:58:00,
2013-12-17 22:13:00,26.4,25.9,29.82,SSE,157,0.0,-999.0,98,-99.99,,,0.00,Acu-Link.com,2013-12-18 03:13:00,
2013-12-17 22:28:00,27.1,26.6,29.82,West,270,0.0,-999.0,98,-99.99,,,0.00,Acu-Link.com,2013-12-18 03:28:00,
2013-12-17 22:43:00,27.7,27.2,29.82,West,270,0.0,-999.0,98,-99.99,,,0.00,Acu-Link.com,2013-12-18 03:43:00,
2013-12-17 22:59:00,27.9,26.7,29.82,WSW,247,0.0,-999.0,95,-99.99,,,0.00,Acu-Link.com,2013-12-18 03:59:00,
2013-12-17 23:14:00,27.9,26.7,29.83,West,270,0.0,-999.0,95,-99.99,,,0.00,Acu-Link.com,2013-12-18 04:14:00,
2013-12-17 23:29:00,27.7,26.5,29.82,West,270,0.0,-999.0,95,-99.99,,,0.00,Acu-Link.com,2013-12-18 04:29:00,
2013-12-17 23:45:00,27.1,25.9,29.82,West,270,0.0,-999.0,95,-99.99,,,0.00,Acu-Link.com,2013-12-18 04:45:00,